Time;durP1;ratioP1;P1;durP2;ratioP2;P2;SDS_P1;SDS_P2;PMS_P1;PMS_P2;Temp;Humidity;BMP_temperature;BMP_pressure;BME280_temperature;BME280_humidity;BME280_pressure;Samples;Min_cycle;Max_cycle;Signal;HPM_P1;HPM_P2
2022/06/17 00:01:42;;;;;;;10.10;6.53;;;;;;;11.84;100.00;101880.59;5039214;28;20272;-77
2022/06/17 00:04:08;;;;;;;8.57;6.30;;;;;;;11.81;100.00;101888.94;5036804;28;20584;-75
2022/06/17 00:06:40;;;;;;;12.63;6.28;;;;;;;11.81;100.00;101894.28;5038227;28;20530;-76
2022/06/17 00:09:07;;;;;;;10.75;6.70;;;;;;;11.71;100.00;101888.09;5039670;28;20043;-76
2022/06/17 00:11:35;;;;;;;17.15;7.75;;;;;;;11.63;100.00;101890.63;5031843;28;20029;-76
2022/06/17 00:14:01;;;;;;;10.07;7.07;;;;;;;11.60;100.00;101896.25;5039626;28;20059;-76
2022/06/17 00:16:28;;;;;;;10.82;7.15;;;;;;;11.57;100.00;101909.94;5037030;28;20017;-76
2022/06/17 00:18:54;;;;;;;10.52;6.95;;;;;;;11.55;100.00;101911.91;5039479;28;20041;-76
2022/06/17 00:21:28;;;;;;;;;;;;;;;11.62;100.00;101915.69;5036914;28;20060;-76
2022/06/17 00:23:54;;;;;;;9.98;7.65;;;;;;;11.52;100.00;101906.81;5037039;28;20086;-76
2022/06/17 00:26:20;;;;;;;;;;;;;;;11.52;100.00;101918.38;5036456;28;20108;-76
2022/06/17 00:28:47;;;;;;;;;;;;;;;11.48;100.00;101924.16;5002357;28;19920;-75
2022/06/17 00:31:14;;;;;;;17.08;8.98;;;;;;;11.39;100.00;101925.81;5035334;28;19999;-75
2022/06/17 00:33:39;;;;;;;;;;;;;;;11.44;100.00;101923.56;5038977;28;20040;-76
2022/06/17 00:36:06;;;;;;;;;;;;;;;11.51;100.00;101929.19;5038288;28;19995;-76
2022/06/17 00:38:32;;;;;;;;;;;;;;;11.57;100.00;101924.16;5038565;28;20035;-76
2022/06/17 00:41:01;;;;;;;;;;;;;;;11.65;100.00;101927.94;5035187;28;19912;-76
2022/06/17 00:43:35;;;;;;;18.63;10.68;;;;;;;11.57;100.00;101928.66;5036631;28;20213;-76
2022/06/17 00:46:26;;;;;;;24.42;12.93;;;;;;;11.51;100.00;101913.16;5040184;28;20458;-75
2022/06/17 00:49:04;;;;;;;19.95;11.90;;;;;;;11.47;100.00;101906.38;5028847;28;20051;-76
2022/06/17 00:51:35;;;;;;;18.98;11.80;;;;;;;11.45;100.00;101908.34;5021704;28;20037;-76
2022/06/17 00:54:13;;;;;;;19.63;11.43;;;;;;;11.40;100.00;101909.66;5034907;28;20123;-75
2022/06/17 00:56:39;;;;;;;25.52;11.55;;;;;;;11.31;100.00;101896.28;5025940;28;20121;-75
2022/06/17 00:59:04;;;;;;;19.20;11.10;;;;;;;11.31;100.00;101902.44;5026308;28;20108;-75
2022/06/17 01:01:56;;;;;;;22.57;12.70;;;;;;;11.27;100.00;101901.03;5023667;28;20088;-75
2022/06/17 01:04:32;;;;;;;19.27;11.73;;;;;;;11.15;100.00;101910.16;5027254;28;20033;-75
2022/06/17 01:07:22;;;;;;;20.15;10.93;;;;;;;11.10;100.00;101912.41;5042784;28;20246;-75
2022/06/17 01:10:08;;;;;;;24.95;12.38;;;;;;;11.03;100.00;101914.78;5043006;28;20429;-75
2022/06/17 01:12:43;;;;;;;20.35;13.30;;;;;;;11.08;100.00;101930.41;5044812;28;20036;-75
2022/06/17 01:15:14;;;;;;;21.38;12.43;;;;;;;11.04;100.00;101927.16;5041708;28;20079;-75
2022/06/17 01:17:40;;;;;;;27.33;11.45;;;;;;;11.03;100.00;101920.13;5041959;28;20034;-75
2022/06/17 01:20:11;;;;;;;19.60;11.55;;;;;;;11.01;100.00;101910.56;5035783;28;20032;-76
2022/06/17 01:22:38;;;;;;;21.30;12.18;;;;;;;11.02;100.00;101912.25;5039277;28;20331;-75
2022/06/17 01:25:20;;;;;;;24.63;13.30;;;;;;;10.99;100.00;101924.06;5022722;28;20062;-75
2022/06/17 01:27:53;;;;;;;23.13;13.93;;;;;;;11.03;100.00;101919.25;5023807;28;20041;-75
2022/06/17 01:30:26;;;;;;;28.35;15.07;;;;;;;11.04;100.00;101915.63;5022210;28;20039;-75
2022/06/17 01:33:08;;;;;;;29.25;16.50;;;;;;;11.20;100.00;101911.44;5033030;28;20465;-75
2022/06/17 01:35:37;;;;;;;23.83;15.15;;;;;;;11.25;100.00;101924.38;5040284;28;20433;-75
2022/06/17 01:38:03;;;;;;;24.38;14.68;;;;;;;11.18;100.00;101924.09;5042385;28;20051;-76
2022/06/17 01:40:29;;;;;;;25.13;14.40;;;;;;;11.13;100.00;101936.19;5042277;28;20037;-75
2022/06/17 01:43:00;;;;;;;26.63;14.15;;;;;;;11.07;100.00;101928.69;5042377;28;20035;-75
2022/06/17 01:45:25;;;;;;;24.85;12.45;;;;;;;11.03;100.00;101935.28;5039410;28;20026;-75
2022/06/17 01:47:51;;;;;;;28.55;14.75;;;;;;;11.05;100.00;101938.69;5043272;28;20432;-75
2022/06/17 01:50:20;;;;;;;35.42;17.50;;;;;;;11.09;100.00;101950.78;5039783;28;20041;-75
2022/06/17 01:52:55;;;;;;;27.58;17.05;;;;;;;11.09;100.00;101948.97;5018741;28;20163;-76
2022/06/17 01:55:26;;;;;;;35.33;19.17;;;;;;;11.14;100.00;101952.09;5022990;28;20402;-75
2022/06/17 01:58:02;;;;;;;35.13;18.85;;;;;;;11.14;100.00;101951.22;5042092;28;20040;-75
2022/06/17 02:00:31;;;;;;;30.20;18.42;;;;;;;11.10;100.00;101955.19;5039698;28;20032;-75
2022/06/17 02:03:12;;;;;;;33.90;18.23;;;;;;;11.01;100.00;101946.13;5036313;28;20029;-75
2022/06/17 02:05:41;;;;;;;32.10;18.05;;;;;;;11.02;100.00;101952.31;5039825;28;20438;-75
2022/06/17 02:08:07;;;;;;;35.25;19.50;;;;;;;11.02;100.00;101958.50;5024604;28;20025;-75
2022/06/17 02:10:40;;;;;;;32.30;18.25;;;;;;;11.02;100.00;101949.66;5034221;28;20487;-75
2022/06/17 02:13:09;;;;;;;34.28;17.88;;;;;;;10.95;100.00;101958.19;5040837;28;20052;-75
2022/06/17 02:15:52;;;;;;;32.03;18.00;;;;;;;10.86;100.00;101950.16;5031818;28;20013;-75
2022/06/17 02:18:43;;;;;;;30.60;18.63;;;;;;;10.89;100.00;101961.44;5040361;28;20486;-75
2022/06/17 02:21:27;;;;;;;31.13;17.73;;;;;;;10.78;100.00;101957.00;5039690;28;20395;-75
2022/06/17 02:23:53;;;;;;;25.67;15.93;;;;;;;10.74;100.00;101952.91;5032060;28;20892;-75
2022/06/17 02:26:20;;;;;;;28.42;17.02;;;;;;;10.73;100.00;101953.06;5039330;28;20025;-75
2022/06/17 02:28:47;;;;;;;37.20;18.30;;;;;;;10.80;100.00;101945.38;5028372;28;20483;-75
2022/06/17 02:31:14;;;;;;;34.58;17.13;;;;;;;10.75;100.00;101948.44;5037684;28;20021;-75
2022/06/17 02:33:41;;;;;;;34.78;20.02;;;;;;;10.80;100.00;101950.72;5024031;28;20372;-75
2022/06/17 02:36:19;;;;;;;30.73;19.45;;;;;;;10.76;100.00;101950.13;5040226;28;20112;-75
2022/06/17 02:38:45;;;;;;;29.05;19.50;;;;;;;10.72;100.00;101951.34;5041199;28;20045;-75
2022/06/17 02:41:17;;;;;;;38.88;21.05;;;;;;;10.74;100.00;101966.28;5021254;28;20083;-75
2022/06/17 02:43:54;;;;;;;34.40;20.15;;;;;;;10.68;100.00;101968.66;5029538;28;20044;-75
2022/06/17 02:46:28;;;;;;;34.40;20.15;;;;;;;10.67;100.00;101964.28;5038941;28;20021;-74
2022/06/17 02:49:16;;;;;;;45.17;22.20;;;;;;;10.73;100.00;101969.09;5019396;28;20559;-75
2022/06/17 02:51:43;;;;;;;36.47;21.98;;;;;;;10.75;100.00;101959.13;5041813;28;20585;-75
2022/06/17 02:54:15;;;;;;;48.20;25.50;;;;;;;10.68;100.00;101958.81;5023526;28;20497;-75
2022/06/17 02:56:47;;;;;;;37.60;22.27;;;;;;;10.69;100.00;101952.47;5023546;28;20035;-75
2022/06/17 02:59:25;;;;;;;52.65;27.17;;;;;;;10.75;100.00;101953.78;5022617;28;20534;-75
2022/06/17 03:01:55;;;;;;;44.17;23.38;;;;;;;10.71;100.00;101949.69;5018333;28;20037;-75
2022/06/17 03:04:43;;;;;;;41.92;23.35;;;;;;;10.67;100.00;101953.59;5038988;28;20063;-76
2022/06/17 03:07:14;;;;;;;45.20;23.85;;;;;;;10.66;100.00;101970.59;5039908;28;20036;-75
2022/06/17 03:09:39;;;;;;;44.05;24.83;;;;;;;10.68;100.00;101960.66;5039731;28;20521;-75
2022/06/17 03:12:12;;;;;;;45.07;22.77;;;;;;;10.64;100.00;101954.72;5036666;28;20116;-75
2022/06/17 03:14:44;;;;;;;57.90;29.15;;;;;;;10.70;100.00;101950.66;5039885;28;20033;-76
2022/06/17 03:17:13;;;;;;;56.40;28.08;;;;;;;10.77;100.00;101954.50;5039718;28;20025;-76
2022/06/17 03:19:40;;;;;;;47.90;26.13;;;;;;;10.74;100.00;101958.25;5038732;28;20056;-76
2022/06/17 03:22:07;;;;;;;50.70;25.48;;;;;;;10.71;100.00;101950.53;5023324;28;20441;-75
2022/06/17 03:24:48;;;;;;;45.85;26.00;;;;;;;10.73;100.00;101959.25;5039953;28;20025;-75
2022/06/17 03:27:19;;;;;;;46.53;24.02;;;;;;;10.69;100.00;101954.31;5038556;28;20028;-75
2022/06/17 03:29:46;;;;;;;44.25;24.70;;;;;;;10.69;100.00;101954.31;5036390;28;20041;-76
2022/06/17 03:32:33;;;;;;;49.58;25.13;;;;;;;10.74;100.00;101958.25;5039238;28;20777;-75
2022/06/17 03:34:58;;;;;;;49.08;26.77;;;;;;;10.73;100.00;101939.72;5019758;28;20498;-75
2022/06/17 03:37:34;;;;;;;41.70;24.27;;;;;;;10.79;100.00;101944.50;5037735;28;20412;-76
2022/06/17 03:40:27;;;;;;;48.38;26.70;;;;;;;10.84;100.00;101934.28;5024401;28;20562;-75
2022/06/17 03:43:28;;;;;;;43.75;23.85;;;;;;;10.90;100.00;101933.72;5013118;28;20136;-74
2022/06/17 03:46:06;;;;;;;44.83;25.40;;;;;;;10.97;100.00;101928.69;5033741;28;20562;-75
2022/06/17 03:48:38;;;;;;;47.90;24.80;;;;;;;11.06;100.00;101924.34;5036765;28;20099;-75
2022/06/17 03:51:04;;;;;;;48.90;26.65;;;;;;;11.19;100.00;101931.13;5023483;28;20127;-75
2022/06/17 03:53:37;;;;;;;43.20;23.70;;;;;;;11.29;100.00;101935.66;5021950;28;20013;-74
2022/06/17 03:56:10;;;;;;;44.58;23.80;;;;;;;11.36;100.00;101928.78;5019534;28;20308;-74
2022/06/17 03:58:40;;;;;;;41.65;22.92;;;;;;;11.45;100.00;101924.41;5054518;28;20103;-74
2022/06/17 04:01:15;;;;;;;41.63;24.70;;;;;;;11.56;100.00;101925.13;5022861;28;20036;-75
2022/06/17 04:03:44;;;;;;;;;;;;;;;11.66;100.00;101917.13;5020120;28;20408;-76
2022/06/17 04:06:14;;;;;;;37.40;22.30;;;;;;;11.83;100.00;101935.13;5019653;28;20067;-75
2022/06/17 04:08:55;;;;;;;43.38;26.15;;;;;;;11.94;100.00;101944.00;5039163;28;20075;-75
2022/06/17 04:11:30;;;;;;;47.28;26.48;;;;;;;12.12;100.00;101928.06;5037111;28;20032;-75
2022/06/17 04:14:00;;;;;;;47.42;26.58;;;;;;;12.27;100.00;101915.94;5037170;28;20029;-74
2022/06/17 04:16:39;;;;;;;52.80;30.58;;;;;;;12.43;100.00;101915.28;5032830;28;20104;-75
2022/06/17 04:19:31;;;;;;;61.70;30.98;;;;;;;12.51;100.00;101920.78;5022784;28;20037;-76
2022/06/17 04:22:18;;;;;;;54.72;30.50;;;;;;;12.71;100.00;101928.72;5011079;28;20045;-75
2022/06/17 04:25:07;;;;;;;46.58;26.33;;;;;;;12.85;100.00;101930.91;5027748;28;20575;-75
2022/06/17 04:30:25;;;;;;;42.95;24.70;;;;;;;13.01;100.00;101932.97;5036353;28;20032;-75
2022/06/17 04:32:56;;;;;;;43.58;26.05;;;;;;;13.14;100.00;101935.31;5039253;28;20070;-75
2022/06/17 04:35:21;;;;;;;44.90;26.27;;;;;;;13.23;100.00;101932.56;5036360;28;20116;-75
2022/06/17 04:37:47;;;;;;;42.13;26.40;;;;;;;13.25;100.00;101927.91;5023091;28;20040;-76
2022/06/17 04:40:41;;;;;;;44.33;25.83;;;;;;;13.48;100.00;101938.19;5037046;28;20498;-75
2022/06/17 04:43:28;;;;;;;50.50;29.63;;;;;;;13.55;100.00;101931.22;5034150;28;20037;-77
2022/06/17 04:46:07;;;;;;;55.53;31.23;;;;;;;13.72;100.00;101941.13;5015252;28;20431;-75
2022/06/17 04:48:34;;;;;;;52.03;32.22;;;;;;;13.71;100.00;101939.41;5040389;28;20025;-75
2022/06/17 04:51:01;;;;;;;56.03;32.53;;;;;;;13.77;100.00;101931.78;5022889;28;20398;-76
2022/06/17 04:53:28;;;;;;;53.53;30.65;;;;;;;13.91;100.00;101926.69;5020385;28;20551;-75
2022/06/17 04:56:45;;;;;;;48.22;29.58;;;;;;;14.03;100.00;101937.19;5038225;28;20067;-77
2022/06/17 04:59:40;;;;;;;56.00;31.83;;;;;;;14.07;100.00;101927.78;5013064;28;20507;-75
2022/06/17 05:02:18;;;;;;;49.47;29.70;;;;;;;14.28;100.00;101932.81;5023987;28;20061;-75
2022/06/17 05:05:00;;;;;;;53.47;30.55;;;;;;;14.18;100.00;101915.97;5035006;28;20033;-76
2022/06/17 05:07:29;;;;;;;54.95;29.45;;;;;;;14.20;100.00;101912.13;5019936;28;20292;-76
2022/06/17 05:10:05;;;;;;;58.95;30.60;;;;;;;14.31;100.00;101933.34;5038631;28;20028;-74
2022/06/17 05:12:48;;;;;;;47.45;30.15;;;;;;;14.57;100.00;101924.47;5040036;28;20121;-75
2022/06/17 05:15:16;;;;;;;44.20;28.33;;;;;;;14.81;100.00;101922.88;5009148;28;20030;-76
2022/06/17 05:17:42;;;;;;;47.58;29.70;;;;;;;15.08;100.00;101929.91;5032959;28;20029;-75
2022/06/17 05:20:19;;;;;;;45.67;27.67;;;;;;;15.37;100.00;101932.13;5037835;28;20498;-75
2022/06/17 05:22:49;;;;;;;44.47;28.83;;;;;;;15.44;100.00;101924.25;5040184;28;20124;-75
2022/06/17 05:25:24;;;;;;;43.35;30.35;;;;;;;15.70;100.00;101921.41;5036848;28;20060;-76
2022/06/17 05:27:50;;;;;;;41.83;25.10;;;;;;;16.02;100.00;101902.59;5028113;28;20029;-76
2022/06/17 05:30:17;;;;;;;40.45;27.90;;;;;;;16.22;100.00;101888.72;5036914;28;20310;-76
2022/06/17 05:32:49;;;;;;;37.63;26.70;;;;;;;16.11;100.00;101878.31;5031875;28;20118;-74
2022/06/17 05:35:17;;;;;;;38.47;26.35;;;;;;;16.38;100.00;101888.69;5016070;28;20078;-75
2022/06/17 05:37:44;;;;;;;44.20;27.45;;;;;;;16.60;100.00;101864.69;5035354;28;20029;-76
2022/06/17 05:40:10;;;;;;;36.55;24.13;;;;;;;17.39;100.00;101867.31;5022701;28;20036;-76
2022/06/17 05:42:36;;;;;;;;;;;;;;;18.00;100.00;101824.06;5030095;28;20116;-75
2022/06/17 05:45:03;;;;;;;;;;;;;;;18.64;100.00;101755.88;5033066;28;20035;-75
2022/06/17 05:47:52;;;;;;;36.30;21.60;;;;;;;19.64;100.00;101689.06;5027950;28;19912;-76
2022/06/17 05:50:30;;;;;;;28.33;18.50;;;;;;;19.76;100.00;101600.78;5016417;28;20443;-76
2022/06/17 05:53:13;;;;;;;22.42;17.25;;;;;;;20.52;100.00;101559.88;5040135;28;20398;-76
2022/06/17 05:55:50;;;;;;;24.35;15.45;;;;;;;20.33;100.00;101496.44;5031153;28;20056;-76
2022/06/17 05:58:16;;;;;;;22.42;13.70;;;;;;;20.99;100.00;101609.53;5040180;28;20130;-77
2022/06/17 06:00:41;;;;;;;19.83;14.47;;;;;;;20.85;100.00;101534.63;5041922;28;20032;-77
2022/06/17 06:03:08;;;;;;;19.75;14.48;;;;;;;21.12;100.00;101543.53;5044262;28;20283;-76
2022/06/17 06:05:36;;;;;;;18.58;12.45;;;;;;;21.81;100.00;101577.34;5040841;28;20467;-77
2022/06/17 06:08:06;;;;;;;25.38;12.02;;;;;;;22.47;100.00;101447.41;5041454;28;20121;-76
2022/06/17 06:10:32;;;;;;;22.20;13.73;;;;;;;21.43;100.00;101390.72;5039837;28;20139;-76
2022/06/17 06:12:57;;;;;;;18.95;11.10;;;;;;;;;;5042237;28;20044;-75
2022/06/17 06:15:39;;;;;;;14.70;11.13;;;;;;;22.55;100.00;101452.56;5039309;28;20124;-75
2022/06/17 06:18:27;;;;;;;16.80;11.02;;;;;;;21.90;100.00;101521.69;5039021;28;20140;-76
2022/06/17 06:20:53;;;;;;;15.57;11.77;;;;;;;21.94;100.00;101513.94;5041525;28;20052;-77
2022/06/17 06:23:18;;;;;;;19.55;13.25;;;;;;;21.83;100.00;101493.72;5023251;28;20021;-76
2022/06/17 06:25:44;;;;;;;21.30;14.00;;;;;;;21.85;100.00;101542.44;5040868;28;20083;-77
2022/06/17 06:28:19;;;;;;;17.02;11.15;;;;;;;21.96;100.00;101608.84;5024092;28;20027;-78
2022/06/17 06:30:53;;;;;;;17.25;12.88;;;;;;;22.01;100.00;101503.84;5029894;28;20396;-76
2022/06/17 06:33:19;;;;;;;16.05;11.95;;;;;;;22.12;100.00;101494.97;5040010;28;20032;-76
2022/06/17 06:35:45;;;;;;;20.27;12.00;;;;;;;22.05;100.00;101521.34;5040769;28;20029;-76
2022/06/17 06:38:12;;;;;;;17.00;12.45;;;;;;;21.61;100.00;101541.28;5040678;28;20047;-77
2022/06/17 06:40:39;;;;;;;18.13;13.85;;;;;;;22.11;100.00;101585.75;5021324;28;20021;-76
2022/06/17 06:43:10;;;;;;;;;;;;;;;20.72;100.00;101493.91;5020373;28;20479;-76
2022/06/17 06:45:54;;;;;;;21.60;13.50;;;;;;;21.28;100.00;101689.72;5021270;28;20375;-76
2022/06/17 06:48:24;;;;;;;23.55;15.85;;;;;;;20.98;100.00;101556.31;5027320;28;20033;-77
2022/06/17 06:50:50;;;;;;;24.38;15.38;;;;;;;21.08;100.00;101589.28;5031730;28;20088;-77
2022/06/17 06:53:15;;;;;;;25.80;14.48;;;;;;;20.83;100.00;101594.50;5022994;28;20470;-75
2022/06/17 06:55:41;;;;;;;22.48;13.93;;;;;;;21.65;100.00;101622.16;5039877;28;20444;-77
2022/06/17 06:58:16;;;;;;;19.13;12.98;;;;;;;21.14;100.00;101595.75;5017663;28;20067;-75
2022/06/17 07:00:50;;;;;;;19.67;13.90;;;;;;;20.10;100.00;101504.97;5013737;28;20040;-76
2022/06/17 07:03:17;;;;;;;16.20;11.35;;;;;;;21.02;100.00;101663.41;5034275;28;20047;-76
2022/06/17 07:05:45;;;;;;;18.38;12.80;;;;;;;21.15;100.00;101608.28;5039067;28;20037;-76
2022/06/17 07:08:13;;;;;;;18.38;12.63;;;;;;;21.62;100.00;101530.19;5040863;28;20024;-77
2022/06/17 07:10:39;;;;;;;19.88;12.20;;;;;;;20.79;100.00;101519.16;5022068;28;20418;-76
2022/06/17 07:13:08;;;;;;;;;;;;;;;21.76;100.00;101675.00;5040809;28;20033;-77
2022/06/17 07:15:35;;;;;;;14.15;10.23;;;;;;;22.41;97.44;101527.22;5038979;28;19962;-78
2022/06/17 07:18:08;;;;;;;15.82;10.57;;;;;;;21.70;100.00;101501.94;5034691;28;20083;-77
2022/06/17 07:20:42;;;;;;;16.67;11.68;;;;;;;20.98;100.00;101471.34;5038908;28;20454;-76
2022/06/17 07:23:20;;;;;;;13.50;9.90;;;;;;;21.59;99.71;101478.19;5038744;28;20037;-75
2022/06/17 07:25:45;;;;;;;16.58;10.57;;;;;;;22.30;97.34;101570.38;5040534;28;20033;-77
2022/06/17 07:28:16;;;;;;;20.52;12.27;;;;;;;22.71;86.95;101454.69;5023486;28;20324;-77
2022/06/17 07:30:48;;;;;;;18.98;14.95;;;;;;;21.64;89.13;101331.66;5040861;28;20128;-76
2022/06/17 07:33:15;;;;;;;19.23;13.10;;;;;;;21.64;96.05;101486.53;5039102;28;20036;-76
2022/06/17 07:35:42;;;;;;;26.33;15.98;;;;;;;21.47;92.18;101397.38;5040572;28;20021;-76
2022/06/17 07:40:57;;;;;;;25.60;18.08;;;;;;;21.23;90.95;101312.03;5032628;28;20045;-76
2022/06/17 07:43:23;;;;;;;23.17;17.13;;;;;;;21.76;93.23;101459.47;5021286;28;20082;-76
2022/06/17 07:45:48;;;;;;;25.70;18.00;;;;;;;20.98;94.93;101365.47;5040041;28;20036;-76
2022/06/17 07:48:15;;;;;;;23.80;16.27;;;;;;;21.34;100.00;101519.66;5022194;28;20271;-77
2022/06/17 07:50:43;;;;;;;23.77;16.98;;;;;;;22.04;93.03;101511.53;5040539;28;20035;-77
2022/06/17 07:53:09;;;;;;;27.83;19.13;;;;;;;21.59;92.24;101391.25;5040793;28;20090;-76
2022/06/17 07:55:35;;;;;;;22.23;15.52;;;;;;;22.24;95.15;101567.69;5038505;28;20479;-76
2022/06/17 07:58:00;;;;;;;;;;;;;;;22.25;88.95;101439.66;5040250;28;20033;-76
2022/06/17 08:00:30;;;;;;;24.27;18.02;;;;;;;22.12;85.50;101379.91;5039070;28;20011;-77
2022/06/17 08:02:55;;;;;;;26.65;20.23;;;;;;;21.80;89.83;101406.34;5040034;28;20021;-77
2022/06/17 08:05:21;;;;;;;22.88;18.10;;;;;;;21.70;88.06;101357.91;5037336;28;20037;-76
2022/06/17 08:07:49;;;;;;;29.83;21.55;;;;;;;21.25;88.91;101304.53;5037241;28;20816;-76
2022/06/17 08:10:18;;;;;;;25.38;18.73;;;;;;;21.97;92.29;101501.78;5015043;28;20402;-78
2022/06/17 08:12:43;;;;;;;26.02;19.67;;;;;;;22.45;85.34;101446.78;5017350;28;20082;-76
2022/06/17 08:15:09;;;;;;;24.77;17.67;;;;;;;22.21;89.87;101503.72;5038891;28;20037;-78
2022/06/17 08:17:35;;;;;;;27.42;18.10;;;;;;;22.60;81.81;101398.28;5021471;28;20030;-77
2022/06/17 08:20:00;;;;;;;27.88;18.92;;;;;;;22.52;82.48;101409.47;5039596;28;20032;-76
2022/06/17 08:22:26;;;;;;;30.27;20.98;;;;;;;22.13;77.67;101238.31;5039016;28;20025;-76
2022/06/17 08:24:52;;;;;;;29.63;20.92;;;;;;;20.61;83.24;101129.22;5034656;28;20534;-76
2022/06/17 08:27:18;;;;;;;25.75;17.35;;;;;;;21.75;79.35;101282.00;5038870;28;20082;-76
2022/06/17 08:29:44;;;;;;;21.85;15.88;;;;;;;21.81;81.60;101349.03;5039251;28;20037;-77
2022/06/17 08:34:53;;;;;;;23.27;16.33;;;;;;;22.24;72.47;101214.16;5029819;28;20535;-77
2022/06/17 08:37:19;;;;;;;18.63;14.65;;;;;;;23.22;71.29;101354.59;5037369;28;20112;-77
2022/06/17 08:39:49;;;;;;;17.60;14.15;;;;;;;23.08;64.74;101138.81;5035229;28;20044;-76
2022/06/17 08:42:39;;;;;;;17.08;12.25;;;;;;;23.64;61.90;101180.13;5038086;28;20378;-76
2022/06/17 08:45:26;;;;;;;22.50;13.13;;;;;;;23.31;61.33;101099.84;5016384;28;20498;-76
2022/06/17 08:48:46;;;;;;;18.10;11.50;;;;;;;23.60;62.87;101206.22;5028897;28;20064;-77
2022/06/17 08:51:14;;;;;;;14.20;10.88;;;;;;;23.71;59.14;101109.13;4983844;28;20066;-77
2022/06/17 08:54:14;;;;;;;17.73;12.98;;;;;;;23.53;58.34;100993.78;5022054;28;20037;-78
2022/06/17 08:56:53;;;;;;;19.95;11.15;;;;;;;23.46;60.93;101132.06;5024770;28;20045;-76
2022/06/17 08:59:46;;;;;;;16.02;12.13;;;;;;;22.84;56.55;100859.47;5038564;28;20139;-76
2022/06/17 09:02:52;;;;;;;13.13;11.40;;;;;;;22.76;56.84;100918.66;5034755;28;20040;-78
2022/06/17 09:05:58;;;;;;;17.38;11.40;;;;;;;23.22;56.37;101008.66;5036328;28;20044;-77
2022/06/17 09:08:37;;;;;;;17.70;8.77;;;;;;;24.21;55.16;101124.91;4983304;28;20283;-76
2022/06/17 09:11:14;;;;;;;10.85;6.90;;;;;;;24.80;53.51;101169.09;5027207;28;20172;-78
2022/06/17 09:13:58;;;;;;;14.07;9.45;;;;;;;24.24;53.47;101042.56;5033402;28;20029;-76
2022/06/17 09:19:00;;;;;;;15.95;8.73;;;;;;;24.64;56.02;101221.78;5028252;28;20060;-73
2022/06/17 09:21:49;;;;;;;14.23;9.50;;;;;;;24.10;54.30;100986.69;5030136;28;20062;-74
2022/06/17 09:24:28;;;;;;;17.98;9.52;;;;;;;24.21;53.93;101026.69;5027137;28;20493;-74
2022/06/17 09:27:01;;;;;;;13.63;9.02;;;;;;;24.27;55.24;101112.97;5019074;28;20042;-74
2022/06/17 09:30:02;;;;;;;15.60;11.38;;;;;;;24.21;53.66;101007.59;5015670;28;20255;-74
2022/06/17 09:32:37;;;;;;;11.80;7.10;;;;;;;23.85;56.16;101050.56;5013301;28;20091;-73
2022/06/17 09:35:17;;;;;;;13.23;8.63;;;;;;;23.72;55.29;100983.53;5012133;28;20069;-73
2022/06/17 09:37:50;;;;;;;11.00;8.05;;;;;;;24.19;56.08;101086.13;5012477;28;20297;-73
2022/06/17 09:40:22;;;;;;;10.85;6.28;;;;;;;24.43;53.58;101082.16;5013266;28;20048;-73
2022/06/17 09:42:57;;;;;;;11.80;7.07;;;;;;;24.72;56.04;101236.91;5007388;28;20037;-73
2022/06/17 09:45:55;;;;;;;11.05;6.85;;;;;;;25.52;52.75;101222.19;5015350;28;20038;-73
2022/06/17 09:48:34;;;;;;;10.23;7.00;;;;;;;24.76;52.31;101016.94;5001125;28;20474;-74
2022/06/17 09:51:20;;;;;;;8.07;5.78;;;;;;;25.74;51.39;101180.38;5012744;28;20038;-73
2022/06/17 09:54:00;;;;;;;10.57;6.97;;;;;;;25.31;49.78;100971.53;5007045;28;20041;-74
2022/06/17 09:56:34;;;;;;;12.35;6.43;;;;;;;24.78;47.47;100712.56;5014572;28;20037;-73
2022/06/17 09:59:04;;;;;;;9.20;6.13;;;;;;;25.38;49.22;100991.28;5012802;28;20049;-73
2022/06/17 10:01:30;;;;;;;6.68;5.53;;;;;;;25.52;48.80;100972.59;5010512;28;20044;-74
2022/06/17 10:03:56;;;;;;;;;;;;;;;24.93;45.98;100650.97;5013354;28;20032;-74
2022/06/17 10:06:32;;;;;;;8.18;4.57;;;;;;;24.02;51.24;100816.94;5013689;28;19925;-73
2022/06/17 10:09:23;;;;;;;14.68;6.75;;;;;;;25.30;48.09;100853.22;5012655;28;20072;-74
2022/06/17 10:11:49;;;;;;;6.93;4.75;;;;;;;25.79;50.02;101129.28;5002796;28;20042;-74
2022/06/17 10:14:31;;;;;;;8.93;4.63;;;;;;;25.87;48.55;100999.50;5011043;28;20057;-74
2022/06/17 10:20:10;;;;;;;8.32;4.28;;;;;;;26.55;47.98;101155.06;5012427;28;20046;-74
2022/06/17 10:23:04;;;;;;;7.25;3.80;;;;;;;26.12;48.47;101053.63;5011083;28;20052;-74
2022/06/17 10:25:47;;;;;;;5.90;4.85;;;;;;;25.31;47.42;100752.94;5008751;28;20080;-74
2022/06/17 10:28:21;;;;;;;8.48;4.63;;;;;;;24.55;52.23;100914.81;5013350;28;20073;-73
2022/06/17 10:30:58;;;;;;;6.25;4.50;;;;;;;23.98;54.74;100963.03;5006661;28;20487;-74
2022/06/17 10:33:24;;;;;;;8.63;4.28;;;;;;;24.41;54.01;100982.53;5014446;28;20065;-73
2022/06/17 10:35:50;;;;;;;6.43;3.67;;;;;;;24.30;54.40;100983.44;5011820;28;20125;-74
2022/06/17 10:38:28;;;;;;;7.90;4.43;;;;;;;25.25;52.79;101105.34;5013949;28;20112;-74
2022/06/17 10:40:53;;;;;;;7.38;5.05;;;;;;;24.58;49.69;100758.75;5007610;28;20045;-74
2022/06/17 10:43:23;;;;;;;7.63;3.80;;;;;;;25.32;53.75;101200.00;4997029;28;20398;-74
2022/06/17 10:45:49;;;;;;;7.22;3.97;;;;;;;25.55;53.61;101177.09;5006962;28;20112;-74
2022/06/17 10:48:36;;;;;;;8.43;4.03;;;;;;;25.41;51.33;101034.53;4995775;28;20459;-74
2022/06/17 10:51:04;;;;;;;13.25;5.13;;;;;;;25.48;52.45;101087.09;4990298;28;20502;-74
2022/06/17 10:53:39;;;;;;;5.63;3.90;;;;;;;25.18;52.92;101041.06;5010527;28;20021;-74
2022/06/17 10:56:09;;;;;;;6.45;4.10;;;;;;;24.71;56.69;101115.97;5011536;28;20395;-74
2022/06/17 10:58:35;;;;;;;8.57;3.78;;;;;;;24.67;60.06;101201.34;5013004;28;20033;-74
2022/06/17 11:01:11;;;;;;;7.45;4.63;;;;;;;24.37;58.75;101112.34;5011711;28;20036;-74
2022/06/17 11:03:38;;;;;;;;;;;;;;;24.35;58.15;101068.09;5010797;28;20033;-74
2022/06/17 11:06:08;;;;;;;8.30;4.90;;;;;;;23.96;56.97;100961.63;5011241;28;19963;-74
2022/06/17 11:09:03;;;;;;;7.78;4.57;;;;;;;24.43;56.97;101082.16;5011703;28;20079;-73
2022/06/17 11:14:29;;;;;;;5.78;4.00;;;;;;;24.71;58.65;101178.75;5013398;28;20041;-73
2022/06/17 11:16:55;;;;;;;8.18;4.25;;;;;;;23.68;59.41;100967.91;5009525;28;20033;-73
2022/06/17 11:19:23;;;;;;;9.32;3.42;;;;;;;24.31;60.39;101151.53;5012175;28;20032;-73
2022/06/17 11:22:01;;;;;;;9.07;4.50;;;;;;;23.57;59.86;100972.31;5011524;28;20045;-73
2022/06/17 11:24:41;;;;;;;10.00;4.18;;;;;;;23.71;66.87;101215.44;4995972;28;20030;-73
2022/06/17 11:27:17;;;;;;;6.72;3.55;;;;;;;23.53;63.07;101056.47;5009820;28;20436;-74
2022/06/17 11:29:48;;;;;;;4.63;3.22;;;;;;;23.43;73.03;101297.91;5009906;28;20128;-73
2022/06/17 11:32:20;;;;;;;5.55;3.95;;;;;;;23.22;67.04;101117.63;5010833;28;20033;-74
2022/06/17 11:34:58;;;;;;;4.53;3.08;;;;;;;23.02;72.79;101209.75;5010863;28;20038;-74
2022/06/17 11:37:29;;;;;;;6.32;4.05;;;;;;;22.99;78.54;101319.09;5012700;28;20653;-73
2022/06/17 11:40:22;;;;;;;4.88;3.25;;;;;;;22.82;77.66;101278.88;5010352;28;20033;-74
2022/06/17 11:42:59;;;;;;;5.80;3.72;;;;;;;23.06;80.12;101379.75;5009104;28;20049;-73
2022/06/17 11:45:29;;;;;;;6.40;3.80;;;;;;;23.12;79.70;101379.66;5011615;28;20029;-74
2022/06/17 11:48:22;;;;;;;10.40;4.30;;;;;;;22.92;86.92;101456.13;5010552;28;20049;-73
2022/06/17 11:51:04;;;;;;;5.78;3.08;;;;;;;22.72;81.82;101336.59;5008243;28;20500;-73
2022/06/17 11:53:31;;;;;;;5.97;3.20;;;;;;;22.48;83.65;101330.19;5007164;28;20108;-74
2022/06/17 11:55:56;;;;;;;9.85;3.53;;;;;;;22.49;86.44;101401.75;5009997;28;20083;-73
2022/06/17 11:58:22;;;;;;;7.20;4.10;;;;;;;22.11;88.29;101343.75;5022201;28;20033;-73